sensor_id;sensor_type;location;lat;lon;timestamp;P1;durP1;ratioP1;P2;durP2;ratioP2
22673;SDS011;11504;43.334;21.918;2022-09-09T00:04:35;13.0;;;12.0;;
22673;SDS011;11504;43.334;21.918;2022-09-09T00:09:18;13.0;;;12.0;;
22673;SDS011;11504;43.334;21.918;2022-09-09T00:14:18;13.0;;;12.0;;
22673;SDS011;11504;43.334;21.918;2022-09-09T00:19:37;13.0;;;12.0;;
22673;SDS011;11504;43.334;21.918;2022-09-09T00:24:39;12.0;;;12.0;;
22673;SDS011;11504;43.334;21.918;2022-09-09T00:29:32;12.0;;;12.0;;
22673;SDS011;11504;43.334;21.918;2022-09-09T00:34:26;12.0;;;11.0;;
22673;SDS011;11504;43.334;21.918;2022-09-09T00:39:09;12.0;;;11.0;;
22673;SDS011;11504;43.334;21.918;2022-09-09T00:44:20;13.0;;;12.0;;
22673;SDS011;11504;43.334;21.918;2022-09-09T00:49:15;13.0;;;12.0;;
22673;SDS011;11504;43.334;21.918;2022-09-09T00:54:38;14.0;;;13.0;;
22673;SDS011;11504;43.334;21.918;2022-09-09T00:59:52;14.0;;;13.0;;
22673;SDS011;11504;43.334;21.918;2022-09-09T01:05:01;14.0;;;13.0;;
22673;SDS011;11504;43.334;21.918;2022-09-09T01:10:21;14.0;;;13.0;;
22673;SDS011;11504;43.334;21.918;2022-09-09T01:15:29;14.0;;;13.0;;
22673;SDS011;11504;43.334;21.918;2022-09-09T01:20:16;14.0;;;13.0;;
22673;SDS011;11504;43.334;21.918;2022-09-09T01:25:26;14.0;;;14.0;;
22673;SDS011;11504;43.334;21.918;2022-09-09T01:31:09;14.0;;;14.0;;
22673;SDS011;11504;43.334;21.918;2022-09-09T01:36:04;14.0;;;14.0;;
22673;SDS011;11504;43.334;21.918;2022-09-09T01:41:04;14.0;;;14.0;;
22673;SDS011;11504;43.334;21.918;2022-09-09T01:45:41;14.0;;;13.0;;
22673;SDS011;11504;43.334;21.918;2022-09-09T01:50:31;14.0;;;13.0;;
22673;SDS011;11504;43.334;21.918;2022-09-09T01:55:08;13.0;;;12.0;;
22673;SDS011;11504;43.334;21.918;2022-09-09T01:59:53;13.0;;;12.0;;
22673;SDS011;11504;43.334;21.918;2022-09-09T02:04:52;14.0;;;13.0;;
22673;SDS011;11504;43.334;21.918;2022-09-09T02:10:21;14.0;;;13.0;;
22673;SDS011;11504;43.334;21.918;2022-09-09T02:15:42;15.0;;;14.0;;
22673;SDS011;11504;43.334;21.918;2022-09-09T02:20:51;15.0;;;14.0;;
22673;SDS011;11504;43.334;21.918;2022-09-09T02:25:36;16.0;;;14.0;;
22673;SDS011;11504;43.334;21.918;2022-09-09T02:30:22;16.0;;;14.0;;
22673;SDS011;11504;43.334;21.918;2022-09-09T02:35:06;16.0;;;15.0;;
22673;SDS011;11504;43.334;21.918;2022-09-09T02:40:03;16.0;;;15.0;;
22673;SDS011;11504;43.334;21.918;2022-09-09T02:44:50;16.0;;;14.0;;
22673;SDS011;11504;43.334;21.918;2022-09-09T02:49:28;16.0;;;14.0;;
22673;SDS011;11504;43.334;21.918;2022-09-09T02:54:48;15.0;;;14.0;;
22673;SDS011;11504;43.334;21.918;2022-09-09T03:00:05;15.0;;;14.0;;
22673;SDS011;11504;43.334;21.918;2022-09-09T03:04:47;14.0;;;14.0;;
22673;SDS011;11504;43.334;21.918;2022-09-09T03:09:24;14.0;;;14.0;;
22673;SDS011;11504;43.334;21.918;2022-09-09T03:14:01;14.0;;;13.0;;
22673;SDS011;11504;43.334;21.918;2022-09-09T03:18:38;14.0;;;13.0;;
22673;SDS011;11504;43.334;21.918;2022-09-09T03:23:15;14.0;;;13.0;;
22673;SDS011;11504;43.334;21.918;2022-09-09T03:27:52;14.0;;;14.0;;
22673;SDS011;11504;43.334;21.918;2022-09-09T03:32:32;14.0;;;14.0;;
22673;SDS011;11504;43.334;21.918;2022-09-09T03:37:08;15.0;;;15.0;;
22673;SDS011;11504;43.334;21.918;2022-09-09T03:41:46;15.0;;;15.0;;
22673;SDS011;11504;43.334;21.918;2022-09-09T03:46:23;15.0;;;14.0;;
22673;SDS011;11504;43.334;21.918;2022-09-09T03:51:02;15.0;;;14.0;;
22673;SDS011;11504;43.334;21.918;2022-09-09T03:55:39;15.0;;;14.0;;
22673;SDS011;11504;43.334;21.918;2022-09-09T04:00:20;15.0;;;14.0;;
22673;SDS011;11504;43.334;21.918;2022-09-09T04:04:57;16.0;;;14.0;;
22673;SDS011;11504;43.334;21.918;2022-09-09T04:09:33;16.0;;;14.0;;
22673;SDS011;11504;43.334;21.918;2022-09-09T04:14:10;16.0;;;15.0;;
22673;SDS011;11504;43.334;21.918;2022-09-09T04:18:47;16.0;;;15.0;;
22673;SDS011;11504;43.334;21.918;2022-09-09T04:23:24;16.0;;;15.0;;
22673;SDS011;11504;43.334;21.918;2022-09-09T04:28:04;15.0;;;14.0;;
22673;SDS011;11504;43.334;21.918;2022-09-09T04:32:41;15.0;;;14.0;;
22673;SDS011;11504;43.334;21.918;2022-09-09T04:37:18;14.0;;;13.0;;
22673;SDS011;11504;43.334;21.918;2022-09-09T04:41:56;14.0;;;13.0;;
22673;SDS011;11504;43.334;21.918;2022-09-09T04:46:33;14.0;;;13.0;;
22673;SDS011;11504;43.334;21.918;2022-09-09T04:51:11;14.0;;;13.0;;
22673;SDS011;11504;43.334;21.918;2022-09-09T04:55:52;14.0;;;13.0;;
22673;SDS011;11504;43.334;21.918;2022-09-09T05:00:47;14.0;;;13.0;;
22673;SDS011;11504;43.334;21.918;2022-09-09T05:05:24;15.0;;;14.0;;
22673;SDS011;11504;43.334;21.918;2022-09-09T05:10:01;15.0;;;14.0;;
22673;SDS011;11504;43.334;21.918;2022-09-09T05:14:42;16.0;;;15.0;;
22673;SDS011;11504;43.334;21.918;2022-09-09T05:19:19;16.0;;;15.0;;
22673;SDS011;11504;43.334;21.918;2022-09-09T05:23:56;16.0;;;14.0;;
22673;SDS011;11504;43.334;21.918;2022-09-09T05:28:33;16.0;;;14.0;;
22673;SDS011;11504;43.334;21.918;2022-09-09T05:33:11;16.0;;;14.0;;
22673;SDS011;11504;43.334;21.918;2022-09-09T05:37:48;16.0;;;14.0;;
22673;SDS011;11504;43.334;21.918;2022-09-09T05:42:28;16.0;;;14.0;;
22673;SDS011;11504;43.334;21.918;2022-09-09T05:47:07;15.0;;;14.0;;
22673;SDS011;11504;43.334;21.918;2022-09-09T05:51:43;15.0;;;14.0;;
22673;SDS011;11504;43.334;21.918;2022-09-09T05:56:20;14.0;;;14.0;;
22673;SDS011;11504;43.334;21.918;2022-09-09T06:01:05;14.0;;;14.0;;
22673;SDS011;11504;43.334;21.918;2022-09-09T06:05:56;14.0;;;14.0;;
22673;SDS011;11504;43.334;21.918;2022-09-09T06:10:40;14.0;;;14.0;;
22673;SDS011;11504;43.334;21.918;2022-09-09T06:15:16;15.0;;;15.0;;
22673;SDS011;11504;43.334;21.918;2022-09-09T06:19:53;15.0;;;15.0;;
22673;SDS011;11504;43.334;21.918;2022-09-09T06:24:29;14.0;;;14.0;;
22673;SDS011;11504;43.334;21.918;2022-09-09T06:29:06;14.0;;;14.0;;
22673;SDS011;11504;43.334;21.918;2022-09-09T06:33:46;14.0;;;14.0;;
22673;SDS011;11504;43.334;21.918;2022-09-09T06:38:29;14.0;;;13.0;;
22673;SDS011;11504;43.334;21.918;2022-09-09T06:43:06;14.0;;;13.0;;
22673;SDS011;11504;43.334;21.918;2022-09-09T06:47:42;14.0;;;14.0;;
22673;SDS011;11504;43.334;21.918;2022-09-09T06:52:19;14.0;;;14.0;;
22673;SDS011;11504;43.334;21.918;2022-09-09T06:56:56;15.0;;;14.0;;
22673;SDS011;11504;43.334;21.918;2022-09-09T07:01:33;15.0;;;14.0;;
22673;SDS011;11504;43.334;21.918;2022-09-09T07:06:17;18.0;;;16.0;;
22673;SDS011;11504;43.334;21.918;2022-09-09T07:11:06;18.0;;;16.0;;
22673;SDS011;11504;43.334;21.918;2022-09-09T07:15:46;20.0;;;19.0;;
22673;SDS011;11504;43.334;21.918;2022-09-09T07:20:23;20.0;;;19.0;;
22673;SDS011;11504;43.334;21.918;2022-09-09T07:25:00;18.0;;;17.0;;
22673;SDS011;11504;43.334;21.918;2022-09-09T07:29:41;18.0;;;17.0;;
22673;SDS011;11504;43.334;21.918;2022-09-09T07:34:18;15.0;;;15.0;;
22673;SDS011;11504;43.334;21.918;2022-09-09T07:38:56;15.0;;;15.0;;
22673;SDS011;11504;43.334;21.918;2022-09-09T07:43:49;15.0;;;15.0;;
22673;SDS011;11504;43.334;21.918;2022-09-09T07:48:30;16.0;;;16.0;;
22673;SDS011;11504;43.334;21.918;2022-09-09T07:53:08;16.0;;;16.0;;
22673;SDS011;11504;43.334;21.918;2022-09-09T07:57:45;17.0;;;16.0;;
22673;SDS011;11504;43.334;21.918;2022-09-09T08:02:23;17.0;;;16.0;;
22673;SDS011;11504;43.334;21.918;2022-09-09T08:07:01;17.0;;;16.0;;
22673;SDS011;11504;43.334;21.918;2022-09-09T08:11:40;17.0;;;16.0;;
22673;SDS011;11504;43.334;21.918;2022-09-09T08:16:21;17.0;;;17.0;;
22673;SDS011;11504;43.334;21.918;2022-09-09T08:21:10;17.0;;;17.0;;
22673;SDS011;11504;43.334;21.918;2022-09-09T08:26:02;17.0;;;16.0;;
22673;SDS011;11504;43.334;21.918;2022-09-09T08:30:45;17.0;;;16.0;;
22673;SDS011;11504;43.334;21.918;2022-09-09T08:35:21;17.0;;;16.0;;
22673;SDS011;11504;43.334;21.918;2022-09-09T08:39:58;17.0;;;16.0;;
22673;SDS011;11504;43.334;21.918;2022-09-09T08:44:38;16.0;;;16.0;;
22673;SDS011;11504;43.334;21.918;2022-09-09T08:50:00;16.0;;;16.0;;
22673;SDS011;11504;43.334;21.918;2022-09-09T08:55:10;16.0;;;15.0;;
22673;SDS011;11504;43.334;21.918;2022-09-09T09:00:20;16.0;;;15.0;;
22673;SDS011;11504;43.334;21.918;2022-09-09T09:05:15;17.0;;;16.0;;
22673;SDS011;11504;43.334;21.918;2022-09-09T09:10:35;17.0;;;16.0;;
22673;SDS011;11504;43.334;21.918;2022-09-09T09:15:33;18.0;;;17.0;;
22673;SDS011;11504;43.334;21.918;2022-09-09T09:20:29;18.0;;;17.0;;
22673;SDS011;11504;43.334;21.918;2022-09-09T09:25:44;18.0;;;17.0;;
22673;SDS011;11504;43.334;21.918;2022-09-09T09:30:21;18.0;;;17.0;;
22673;SDS011;11504;43.334;21.918;2022-09-09T09:35:18;17.0;;;17.0;;
22673;SDS011;11504;43.334;21.918;2022-09-09T09:39:55;17.0;;;17.0;;
22673;SDS011;11504;43.334;21.918;2022-09-09T09:44:45;16.0;;;16.0;;
22673;SDS011;11504;43.334;21.918;2022-09-09T09:49:22;16.0;;;16.0;;
22673;SDS011;11504;43.334;21.918;2022-09-09T09:54:16;16.0;;;16.0;;
22673;SDS011;11504;43.334;21.918;2022-09-09T09:59:20;16.0;;;15.0;;
22673;SDS011;11504;43.334;21.918;2022-09-09T10:04:15;15.0;;;14.0;;
22673;SDS011;11504;43.334;21.918;2022-09-09T10:09:00;15.0;;;14.0;;
22673;SDS011;11504;43.334;21.918;2022-09-09T10:14:08;14.0;;;14.0;;
22673;SDS011;11504;43.334;21.918;2022-09-09T10:19:52;14.0;;;14.0;;
22673;SDS011;11504;43.334;21.918;2022-09-09T10:25:55;14.0;;;14.0;;
22673;SDS011;11504;43.334;21.918;2022-09-09T10:31:40;14.0;;;14.0;;
22673;SDS011;11504;43.334;21.918;2022-09-09T10:37:36;15.0;;;14.0;;
22673;SDS011;11504;43.334;21.918;2022-09-09T10:43:01;15.0;;;14.0;;
22673;SDS011;11504;43.334;21.918;2022-09-09T10:49:01;14.0;;;13.0;;
22673;SDS011;11504;43.334;21.918;2022-09-09T10:55:07;13.0;;;12.0;;
22673;SDS011;11504;43.334;21.918;2022-09-09T11:00:04;13.0;;;12.0;;
22673;SDS011;11504;43.334;21.918;2022-09-09T11:05:03;13.0;;;12.0;;
22673;SDS011;11504;43.334;21.918;2022-09-09T11:10:04;13.0;;;12.0;;
22673;SDS011;11504;43.334;21.918;2022-09-09T11:15:20;13.0;;;11.0;;
22673;SDS011;11504;43.334;21.918;2022-09-09T11:20:21;13.0;;;11.0;;
22673;SDS011;11504;43.334;21.918;2022-09-09T11:25:00;14.0;;;12.0;;
22673;SDS011;11504;43.334;21.918;2022-09-09T11:30:10;14.0;;;12.0;;
22673;SDS011;11504;43.334;21.918;2022-09-09T11:35:07;15.0;;;13.0;;
22673;SDS011;11504;43.334;21.918;2022-09-09T11:40:40;15.0;;;13.0;;
22673;SDS011;11504;43.334;21.918;2022-09-09T11:45:20;12.0;;;10.0;;
22673;SDS011;11504;43.334;21.918;2022-09-09T11:50:07;12.0;;;10.0;;
22673;SDS011;11504;43.334;21.918;2022-09-09T11:55:23;9.0;;;8.0;;
22673;SDS011;11504;43.334;21.918;2022-09-09T12:00:27;9.0;;;8.0;;
22673;SDS011;11504;43.334;21.918;2022-09-09T12:05:17;10.0;;;8.0;;
22673;SDS011;11504;43.334;21.918;2022-09-09T12:09:56;10.0;;;8.0;;
22673;SDS011;11504;43.334;21.918;2022-09-09T12:15:21;11.0;;;9.0;;
22673;SDS011;11504;43.334;21.918;2022-09-09T12:20:08;11.0;;;9.0;;
22673;SDS011;11504;43.334;21.918;2022-09-09T12:24:59;11.0;;;10.0;;
22673;SDS011;11504;43.334;21.918;2022-09-09T12:30:27;11.0;;;10.0;;
22673;SDS011;11504;43.334;21.918;2022-09-09T12:35:42;11.0;;;10.0;;
22673;SDS011;11504;43.334;21.918;2022-09-09T12:40:35;11.0;;;10.0;;
22673;SDS011;11504;43.334;21.918;2022-09-09T12:45:15;10.0;;;10.0;;
22673;SDS011;11504;43.334;21.918;2022-09-09T12:50:14;10.0;;;10.0;;
22673;SDS011;11504;43.334;21.918;2022-09-09T12:55:15;10.0;;;9.0;;
22673;SDS011;11504;43.334;21.918;2022-09-09T13:00:14;10.0;;;9.0;;
22673;SDS011;11504;43.334;21.918;2022-09-09T13:05:06;11.0;;;10.0;;
22673;SDS011;11504;43.334;21.918;2022-09-09T13:10:10;11.0;;;10.0;;
22673;SDS011;11504;43.334;21.918;2022-09-09T13:15:22;12.0;;;11.0;;
22673;SDS011;11504;43.334;21.918;2022-09-09T13:20:14;12.0;;;11.0;;
22673;SDS011;11504;43.334;21.918;2022-09-09T13:25:02;12.0;;;12.0;;
22673;SDS011;11504;43.334;21.918;2022-09-09T13:30:19;12.0;;;12.0;;
22673;SDS011;11504;43.334;21.918;2022-09-09T13:35:22;12.0;;;12.0;;
22673;SDS011;11504;43.334;21.918;2022-09-09T13:40:01;12.0;;;12.0;;
22673;SDS011;11504;43.334;21.918;2022-09-09T13:44:58;12.0;;;12.0;;
22673;SDS011;11504;43.334;21.918;2022-09-09T13:49:37;12.0;;;12.0;;
22673;SDS011;11504;43.334;21.918;2022-09-09T13:54:15;12.0;;;12.0;;
22673;SDS011;11504;43.334;21.918;2022-09-09T13:58:56;12.0;;;11.0;;
22673;SDS011;11504;43.334;21.918;2022-09-09T14:03:33;12.0;;;11.0;;
22673;SDS011;11504;43.334;21.918;2022-09-09T14:08:10;10.0;;;10.0;;
22673;SDS011;11504;43.334;21.918;2022-09-09T14:13:02;10.0;;;10.0;;
22673;SDS011;11504;43.334;21.918;2022-09-09T14:17:39;9.0;;;8.0;;
22673;SDS011;11504;43.334;21.918;2022-09-09T14:22:16;9.0;;;8.0;;
22673;SDS011;11504;43.334;21.918;2022-09-09T14:26:53;9.0;;;8.0;;
22673;SDS011;11504;43.334;21.918;2022-09-09T14:31:32;9.0;;;8.0;;
22673;SDS011;11504;43.334;21.918;2022-09-09T14:36:09;9.0;;;9.0;;
22673;SDS011;11504;43.334;21.918;2022-09-09T14:40:47;9.0;;;9.0;;
22673;SDS011;11504;43.334;21.918;2022-09-09T14:45:24;9.0;;;9.0;;
22673;SDS011;11504;43.334;21.918;2022-09-09T14:50:01;9.0;;;9.0;;
22673;SDS011;11504;43.334;21.918;2022-09-09T14:54:41;9.0;;;9.0;;
22673;SDS011;11504;43.334;21.918;2022-09-09T14:59:18;9.0;;;9.0;;
22673;SDS011;11504;43.334;21.918;2022-09-09T15:03:55;9.0;;;9.0;;
22673;SDS011;11504;43.334;21.918;2022-09-09T15:08:41;9.0;;;8.0;;
22673;SDS011;11504;43.334;21.918;2022-09-09T15:13:27;9.0;;;8.0;;
22673;SDS011;11504;43.334;21.918;2022-09-09T15:18:05;9.0;;;8.0;;
22673;SDS011;11504;43.334;21.918;2022-09-09T15:22:42;9.0;;;8.0;;
22673;SDS011;11504;43.334;21.918;2022-09-09T15:27:19;8.0;;;8.0;;
22673;SDS011;11504;43.334;21.918;2022-09-09T15:31:57;8.0;;;8.0;;
22673;SDS011;11504;43.334;21.918;2022-09-09T15:36:34;8.0;;;7.0;;
22673;SDS011;11504;43.334;21.918;2022-09-09T15:41:21;8.0;;;7.0;;
22673;SDS011;11504;43.334;21.918;2022-09-09T15:46:08;8.0;;;8.0;;
22673;SDS011;11504;43.334;21.918;2022-09-09T15:51:11;8.0;;;8.0;;
22673;SDS011;11504;43.334;21.918;2022-09-09T15:55:49;9.0;;;8.0;;
22673;SDS011;11504;43.334;21.918;2022-09-09T16:00:31;9.0;;;8.0;;
22673;SDS011;11504;43.334;21.918;2022-09-09T16:05:08;8.0;;;7.0;;
22673;SDS011;11504;43.334;21.918;2022-09-09T16:09:45;8.0;;;7.0;;
22673;SDS011;11504;43.334;21.918;2022-09-09T16:14:22;8.0;;;7.0;;
22673;SDS011;11504;43.334;21.918;2022-09-09T16:19:00;7.0;;;6.0;;
22673;SDS011;11504;43.334;21.918;2022-09-09T16:23:48;7.0;;;6.0;;
22673;SDS011;11504;43.334;21.918;2022-09-09T16:28:28;8.0;;;7.0;;
22673;SDS011;11504;43.334;21.918;2022-09-09T16:33:05;8.0;;;7.0;;
22673;SDS011;11504;43.334;21.918;2022-09-09T16:37:41;9.0;;;8.0;;
22673;SDS011;11504;43.334;21.918;2022-09-09T16:42:17;9.0;;;8.0;;
22673;SDS011;11504;43.334;21.918;2022-09-09T16:46:54;10.0;;;8.0;;
22673;SDS011;11504;43.334;21.918;2022-09-09T16:51:31;10.0;;;8.0;;
22673;SDS011;11504;43.334;21.918;2022-09-09T16:56:17;10.0;;;9.0;;
22673;SDS011;11504;43.334;21.918;2022-09-09T17:01:03;10.0;;;9.0;;
22673;SDS011;11504;43.334;21.918;2022-09-09T17:05:41;12.0;;;10.0;;
22673;SDS011;11504;43.334;21.918;2022-09-09T17:10:18;12.0;;;10.0;;
22673;SDS011;11504;43.334;21.918;2022-09-09T17:14:55;13.0;;;11.0;;
22673;SDS011;11504;43.334;21.918;2022-09-09T17:19:32;13.0;;;11.0;;
22673;SDS011;11504;43.334;21.918;2022-09-09T17:24:10;13.0;;;11.0;;
22673;SDS011;11504;43.334;21.918;2022-09-09T17:28:47;12.0;;;10.0;;
22673;SDS011;11504;43.334;21.918;2022-09-09T17:33:24;12.0;;;10.0;;
22673;SDS011;11504;43.334;21.918;2022-09-09T17:38:01;12.0;;;9.0;;
22673;SDS011;11504;43.334;21.918;2022-09-09T17:42:37;12.0;;;9.0;;
22673;SDS011;11504;43.334;21.918;2022-09-09T17:47:14;12.0;;;10.0;;
22673;SDS011;11504;43.334;21.918;2022-09-09T17:51:51;12.0;;;10.0;;
22673;SDS011;11504;43.334;21.918;2022-09-09T17:56:29;12.0;;;12.0;;
22673;SDS011;11504;43.334;21.918;2022-09-09T18:01:14;12.0;;;12.0;;
22673;SDS011;11504;43.334;21.918;2022-09-09T18:06:07;12.0;;;12.0;;
22673;SDS011;11504;43.334;21.918;2022-09-09T18:11:01;12.0;;;12.0;;
22673;SDS011;11504;43.334;21.918;2022-09-09T18:15:44;13.0;;;12.0;;
22673;SDS011;11504;43.334;21.918;2022-09-09T18:20:21;13.0;;;12.0;;
22673;SDS011;11504;43.334;21.918;2022-09-09T18:24:58;15.0;;;14.0;;
22673;SDS011;11504;43.334;21.918;2022-09-09T18:29:35;15.0;;;14.0;;
22673;SDS011;11504;43.334;21.918;2022-09-09T18:34:13;15.0;;;14.0;;
22673;SDS011;11504;43.334;21.918;2022-09-09T18:38:58;17.0;;;16.0;;
22673;SDS011;11504;43.334;21.918;2022-09-09T18:43:43;17.0;;;16.0;;
22673;SDS011;11504;43.334;21.918;2022-09-09T18:48:20;18.0;;;16.0;;
22673;SDS011;11504;43.334;21.918;2022-09-09T18:52:57;18.0;;;16.0;;
22673;SDS011;11504;43.334;21.918;2022-09-09T18:57:34;18.0;;;17.0;;
22673;SDS011;11504;43.334;21.918;2022-09-09T19:02:12;18.0;;;17.0;;
22673;SDS011;11504;43.334;21.918;2022-09-09T19:06:49;18.0;;;16.0;;
22673;SDS011;11504;43.334;21.918;2022-09-09T19:11:27;18.0;;;16.0;;
22673;SDS011;11504;43.334;21.918;2022-09-09T19:16:04;19.0;;;16.0;;
22673;SDS011;11504;43.334;21.918;2022-09-09T19:20:48;19.0;;;16.0;;
22673;SDS011;11504;43.334;21.918;2022-09-09T19:25:25;16.0;;;14.0;;
22673;SDS011;11504;43.334;21.918;2022-09-09T19:30:02;16.0;;;14.0;;
22673;SDS011;11504;43.334;21.918;2022-09-09T19:34:43;14.0;;;13.0;;
22673;SDS011;11504;43.334;21.918;2022-09-09T19:39:20;14.0;;;13.0;;
22673;SDS011;11504;43.334;21.918;2022-09-09T19:43:57;14.0;;;13.0;;
22673;SDS011;11504;43.334;21.918;2022-09-09T19:48:48;13.0;;;12.0;;
22673;SDS011;11504;43.334;21.918;2022-09-09T19:53:25;13.0;;;12.0;;
22673;SDS011;11504;43.334;21.918;2022-09-09T19:58:01;12.0;;;12.0;;
22673;SDS011;11504;43.334;21.918;2022-09-09T20:02:38;12.0;;;12.0;;
22673;SDS011;11504;43.334;21.918;2022-09-09T20:07:14;12.0;;;11.0;;
22673;SDS011;11504;43.334;21.918;2022-09-09T20:11:51;12.0;;;11.0;;
22673;SDS011;11504;43.334;21.918;2022-09-09T20:16:28;11.0;;;10.0;;
22673;SDS011;11504;43.334;21.918;2022-09-09T20:21:09;11.0;;;10.0;;
22673;SDS011;11504;43.334;21.918;2022-09-09T20:25:59;11.0;;;10.0;;
22673;SDS011;11504;43.334;21.918;2022-09-09T20:30:45;11.0;;;10.0;;
22673;SDS011;11504;43.334;21.918;2022-09-09T20:35:25;11.0;;;10.0;;
22673;SDS011;11504;43.334;21.918;2022-09-09T20:40:03;11.0;;;10.0;;
22673;SDS011;11504;43.334;21.918;2022-09-09T20:44:45;12.0;;;11.0;;
22673;SDS011;11504;43.334;21.918;2022-09-09T20:49:23;12.0;;;11.0;;
22673;SDS011;11504;43.334;21.918;2022-09-09T20:54:01;12.0;;;11.0;;
22673;SDS011;11504;43.334;21.918;2022-09-09T20:58:54;13.0;;;12.0;;
22673;SDS011;11504;43.334;21.918;2022-09-09T21:03:32;13.0;;;12.0;;
22673;SDS011;11504;43.334;21.918;2022-09-09T21:08:11;16.0;;;14.0;;
22673;SDS011;11504;43.334;21.918;2022-09-09T21:12:48;16.0;;;14.0;;
22673;SDS011;11504;43.334;21.918;2022-09-09T21:17:26;18.0;;;16.0;;
22673;SDS011;11504;43.334;21.918;2022-09-09T21:22:03;18.0;;;16.0;;
22673;SDS011;11504;43.334;21.918;2022-09-09T21:26:40;16.0;;;14.0;;
22673;SDS011;11504;43.334;21.918;2022-09-09T21:31:17;16.0;;;14.0;;
22673;SDS011;11504;43.334;21.918;2022-09-09T21:36:00;13.0;;;12.0;;
22673;SDS011;11504;43.334;21.918;2022-09-09T21:40:45;13.0;;;12.0;;
22673;SDS011;11504;43.334;21.918;2022-09-09T21:45:24;14.0;;;13.0;;
22673;SDS011;11504;43.334;21.918;2022-09-09T21:50:01;14.0;;;13.0;;
22673;SDS011;11504;43.334;21.918;2022-09-09T21:54:39;14.0;;;13.0;;
22673;SDS011;11504;43.334;21.918;2022-09-09T21:59:15;16.0;;;14.0;;
22673;SDS011;11504;43.334;21.918;2022-09-09T22:03:53;16.0;;;14.0;;
22673;SDS011;11504;43.334;21.918;2022-09-09T22:08:29;48.0;;;39.0;;
22673;SDS011;11504;43.334;21.918;2022-09-09T22:13:06;48.0;;;39.0;;
22673;SDS011;11504;43.334;21.918;2022-09-09T22:17:43;79.0;;;64.0;;
22673;SDS011;11504;43.334;21.918;2022-09-09T22:22:20;79.0;;;64.0;;
22673;SDS011;11504;43.334;21.918;2022-09-09T22:26:57;46.0;;;38.0;;
22673;SDS011;11504;43.334;21.918;2022-09-09T22:31:34;46.0;;;38.0;;
22673;SDS011;11504;43.334;21.918;2022-09-09T22:36:11;12.0;;;12.0;;
22673;SDS011;11504;43.334;21.918;2022-09-09T22:40:48;12.0;;;12.0;;
22673;SDS011;11504;43.334;21.918;2022-09-09T22:45:25;12.0;;;12.0;;
22673;SDS011;11504;43.334;21.918;2022-09-09T22:50:01;12.0;;;12.0;;
22673;SDS011;11504;43.334;21.918;2022-09-09T22:54:42;12.0;;;12.0;;
22673;SDS011;11504;43.334;21.918;2022-09-09T22:59:18;13.0;;;11.0;;
22673;SDS011;11504;43.334;21.918;2022-09-09T23:03:55;13.0;;;11.0;;
22673;SDS011;11504;43.334;21.918;2022-09-09T23:08:34;12.0;;;10.0;;
22673;SDS011;11504;43.334;21.918;2022-09-09T23:13:13;12.0;;;10.0;;
22673;SDS011;11504;43.334;21.918;2022-09-09T23:17:50;11.0;;;10.0;;
22673;SDS011;11504;43.334;21.918;2022-09-09T23:22:27;11.0;;;10.0;;
22673;SDS011;11504;43.334;21.918;2022-09-09T23:27:06;11.0;;;10.0;;
22673;SDS011;11504;43.334;21.918;2022-09-09T23:31:43;11.0;;;10.0;;
22673;SDS011;11504;43.334;21.918;2022-09-09T23:36:23;11.0;;;10.0;;
22673;SDS011;11504;43.334;21.918;2022-09-09T23:41:06;11.0;;;10.0;;
22673;SDS011;11504;43.334;21.918;2022-09-09T23:45:54;11.0;;;10.0;;
22673;SDS011;11504;43.334;21.918;2022-09-09T23:50:32;11.0;;;10.0;;
22673;SDS011;11504;43.334;21.918;2022-09-09T23:55:09;11.0;;;10.0;;
22673;SDS011;11504;43.334;21.918;2022-09-09T23:59:46;11.0;;;10.0;;
